Quick Links (Output Below):   Max & Min Temps   /   Climate Reports   /   Zone Forecasts
River Forecasts   /   Forestry Forecasts   /   Aviation Forecasts   /   Radars   /   Features

Terminal Aerodrome Forecast (Fort Smith)

Pick a Site:
Arkadelphia | El Dorado | Fayetteville | Fort Smith | Harrison | Highfill | Hot Springs | Jonesboro
Little Rock | Monticello | Mountain Home | Pine Bluff | Texarkana
 Forecast 

KFSM 012340Z 0200/0224 20011KT P6SM SCT180
     FM020700 22008KT P6SM SCT040 BKN120
     FM021200 23010KT P6SM VCTS BKN060CB
     FM021800 24011KT P6SM SCT050 BKN120
     FM022100 25012KT P6SM VCTS SCT050CB BKN120 PROB30 0221/0224 4SM
      TSRA BKN035CB=


 Latest METARs (Observations) 
How to Decode METARs
03Z KFSM 020253Z 21008KT 10SM CLR 29/21 A2987 RMK AO2 SLP109 T02940206
         58001
         
02Z KFSM 020153Z 21007KT 10SM CLR 30/20 A2987 RMK AO2 SLP109
         T03000200
         
01Z KFSM 020053Z 21010G17KT 10SM CLR 32/19 A2989 RMK AO2 SLP114
         T03170194
         
00Z KFSM 012353Z 20011G19KT 10SM CLR 33/19 A2988 RMK AO2 SLP110
         T03280194 10344 20317 55005
         
***** Today's Observations (Above) *****


23Z KFSM 012253Z 21012KT 10SM CLR 34/19 A2987 RMK AO2 SLP110
         T03390194
         
22Z KFSM 012153Z 22011G17KT 10SM CLR 34/18 A2988 RMK AO2 SLP112
         T03440183
         
20Z KFSM 011953Z 23008KT 10SM FEW050 33/21 A2991 RMK AO2 SLP122
         T03330206
         
19Z KFSM 011853Z 22008KT 10SM CLR 34/22 A2992 RMK AO2 SLP125
         T03390217
         
18Z KFSM 011753Z 22010KT 10SM CLR 32/22 A2994 RMK AO2 SLP132 T03220217
         10322 20244 58001
         
17Z KFSM 011653Z 19008KT 10SM CLR 31/22 A2995 RMK AO2 SLP133
         T03110217
         
***** Yesterday's Observations (Above) *****


Back to Main Page
http://www.srh.noaa.gov/lzk/qfcst.php

USA.gov is the U.S. government's official web portal to all federal, state and local government web resources and services.